Terminal Aerodrome Forecast
Issued by NWS Quad Cities IA IL

Home | Current Version | Previous Version | Text Only | Print | Product List | Glossary On
Versions: 1 2 3 4 5 6 7 8 9 10 11 12 13 14 15 16 17 18 19 20 21 22 23 24 25 26 27 28 29 30 31 32 33 34 35 36 37 38
577
FTUS43 KDVN 200551 CCA
TAFDBQ
TAF COR
KDBQ 200551Z 2006/2106 10007KT 1/4SM FG VV001
      TEMPO 2006/2008 3/4SM BR VV003
     FM200800 10004KT 1/4SM -DZ FG OVC001
     FM201600 12005KT 1SM BR OVC005
     FM210300 09003KT 3/4SM BR OVC002=

USA.gov is the U.S. government's official web portal to all federal, state and local government web resources and services.